Time;durP1;ratioP1;P1;durP2;ratioP2;P2;SDS_P1;SDS_P2;PMS_P1;PMS_P2;Temp;Humidity;BMP_temperature;BMP_pressure;BME280_temperature;BME280_humidity;BME280_pressure;Samples;Min_cycle;Max_cycle;Signal;HPM_P1;HPM_P2
2022/02/15 00:00:32;;;;;;;;;;;5.00;99.90;;;;;;5014183;28;19917;-82
2022/02/15 00:02:58;;;;;;;;;;;5.00;99.90;;;;;;5013506;28;19918;-81
2022/02/15 00:05:24;;;;;;;;;;;5.00;99.90;;;;;;5012649;28;19918;-82
2022/02/15 00:07:50;;;;;;;;;;;4.90;99.90;;;;;;5034126;28;19924;-81
2022/02/15 00:10:15;;;;;;;;;;;4.90;99.90;;;;;;5013172;28;20265;-82
2022/02/15 00:12:41;;;;;;;;;;;4.90;99.90;;;;;;5013035;28;19924;-81
2022/02/15 00:15:07;;;;;;;;;;;4.90;99.90;;;;;;5026586;28;19917;-82
2022/02/15 00:17:34;;;;;;;;;;;4.90;99.90;;;;;;5011179;28;19968;-79
2022/02/15 00:19:59;;;;;;;;;;;4.90;99.90;;;;;;5045341;28;19948;-79
2022/02/15 00:22:25;;;;;;;;;;;4.90;99.90;;;;;;5009386;28;20459;-79
2022/02/15 00:24:50;;;;;;;;;;;4.90;99.90;;;;;;5029190;28;19918;-79
2022/02/15 00:27:16;;;;;;;;;;;4.90;99.90;;;;;;5012440;28;20398;-80
2022/02/15 00:29:43;;;;;;;;;;;4.90;99.90;;;;;;5022102;28;19928;-79
2022/02/15 00:32:08;;;;;;;;;;;4.90;99.90;;;;;;5012655;28;19917;-80
2022/02/15 00:34:34;;;;;;;;;;;4.90;99.90;;;;;;5045923;28;19917;-79
2022/02/15 00:37:00;;;;;;;;;;;4.90;99.90;;;;;;4995523;28;20422;-80
2022/02/15 00:39:26;;;;;;;;;;;4.90;99.90;;;;;;5025443;28;20379;-80
2022/02/15 00:41:52;;;;;;;;;;;4.80;99.90;;;;;;5022875;28;19995;-80
2022/02/15 00:44:20;;;;;;;;;;;4.80;99.90;;;;;;5031791;28;19917;-79
2022/02/15 00:46:47;;;;;;;;;;;4.80;99.90;;;;;;5045107;28;19925;-79
2022/02/15 00:49:13;;;;;;;;;;;4.80;99.90;;;;;;5013356;28;20009;-79
2022/02/15 00:51:39;;;;;;;;;;;4.80;99.90;;;;;;5045346;28;19920;-79
2022/02/15 00:54:04;;;;;;;;;;;4.80;99.90;;;;;;5026059;28;19925;-80
2022/02/15 00:56:31;;;;;;;;;;;4.80;99.90;;;;;;5044610;28;19918;-80
2022/02/15 00:58:57;;;;;;;;;;;4.80;99.90;;;;;;5034048;28;20363;-79
2022/02/15 01:01:22;;;;;;;;;;;4.90;99.90;;;;;;5046301;28;19917;-79
2022/02/15 01:03:48;;;;;;;;;;;4.90;99.90;;;;;;5023843;28;19964;-79
2022/02/15 01:06:15;;;;;;;;;;;4.90;99.90;;;;;;5028166;28;19913;-79
2022/02/15 01:08:42;;;;;;;;;;;4.90;99.90;;;;;;5008552;28;19921;-80
2022/02/15 01:11:08;;;;;;;;;;;4.90;99.90;;;;;;5013228;28;20056;-79
2022/02/15 01:13:35;;;;;;;;;;;5.00;99.90;;;;;;5025696;28;19976;-79
2022/02/15 01:16:00;;;;;;;;;;;5.00;99.90;;;;;;5010958;28;19931;-79
2022/02/15 01:18:27;;;;;;;;;;;4.90;99.90;;;;;;5027405;28;19996;-79
2022/02/15 01:20:53;;;;;;;;;;;5.00;99.90;;;;;;5029097;28;19918;-80
2022/02/15 01:23:20;;;;;;;;;;;5.00;99.90;;;;;;5043028;28;19926;-79
2022/02/15 01:25:45;;;;;;;;;;;5.10;99.90;;;;;;5011818;28;19928;-79
2022/02/15 01:28:11;;;;;;;;;;;5.00;99.90;;;;;;5042978;28;19930;-80
2022/02/15 01:30:37;;;;;;;;;;;5.00;99.90;;;;;;5025755;28;20384;-79
2022/02/15 01:33:03;;;;;;;;;;;5.00;99.90;;;;;;5007693;28;19921;-79
2022/02/15 01:35:29;;;;;;;;;;;5.00;99.90;;;;;;5041673;28;20326;-79
2022/02/15 01:37:54;;;;;;;;;;;5.00;99.90;;;;;;5005234;28;19913;-80
2022/02/15 01:40:22;;;;;;;;;;;5.00;99.90;;;;;;5010229;28;20020;-80
2022/02/15 01:42:47;;;;;;;;;;;5.00;99.90;;;;;;5037889;28;20545;-80
2022/02/15 01:45:15;;;;;;;;;;;5.00;99.90;;;;;;5024081;28;19952;-80
2022/02/15 01:47:40;;;;;;;;;;;5.00;99.90;;;;;;5019419;28;19929;-79
2022/02/15 01:50:07;;;;;;;;;;;5.00;99.90;;;;;;5007471;28;19922;-80
2022/02/15 01:52:33;;;;;;;;;;;5.00;99.90;;;;;;5007354;28;19917;-79
2022/02/15 01:54:59;;;;;;;;;;;5.00;99.90;;;;;;4973246;28;19918;-80
2022/02/15 01:57:25;;;;;;;;;;;5.10;99.90;;;;;;4993118;28;19968;-79
2022/02/15 01:59:58;;;;;;;;;;;5.00;99.90;;;;;;5015367;28;19925;-80
2022/02/15 02:02:29;;;;;;;;;;;5.10;99.90;;;;;;5014030;28;19925;-80
2022/02/15 02:07:41;;;;;;;;;;;5.10;99.90;;;;;;5019154;28;19927;-80
2022/02/15 02:10:07;;;;;;;;;;;5.10;99.90;;;;;;5010877;28;19929;-79
2022/02/15 02:12:33;;;;;;;;;;;5.10;99.90;;;;;;5043854;28;19963;-80
2022/02/15 02:15:00;;;;;;;;;;;5.10;99.90;;;;;;5044047;28;20283;-80
2022/02/15 02:17:46;;;;;;;;;;;5.00;99.90;;;;;;5011008;28;19914;-80
2022/02/15 02:20:12;;;;;;;;;;;5.00;99.90;;;;;;5026240;28;19917;-80
2022/02/15 02:22:38;;;;;;;;;;;5.00;99.90;;;;;;5026007;28;19913;-80
2022/02/15 02:25:04;;;;;;;;;;;5.00;99.90;;;;;;5010730;28;19913;-80
2022/02/15 02:27:31;;;;;;;;;;;5.00;99.90;;;;;;5011641;28;19917;-80
2022/02/15 02:29:57;;;;;;;;;;;5.00;99.90;;;;;;5028398;28;19960;-80
2022/02/15 02:32:27;;;;;;;;;;;5.00;99.90;;;;;;5023726;28;20004;-80
2022/02/15 02:34:53;;;;;;;;;;;5.00;99.90;;;;;;5012733;28;19921;-80
2022/02/15 02:37:19;;;;;;;;;;;4.90;99.90;;;;;;5018080;28;20011;-80
2022/02/15 02:39:46;;;;;;;;;;;4.90;99.90;;;;;;5028901;28;19996;-79
2022/02/15 02:42:13;;;;;;;;;;;5.00;99.90;;;;;;5028758;28;19920;-80
2022/02/15 02:44:39;;;;;;;;;;;5.10;99.90;;;;;;5025841;28;20273;-80
2022/02/15 02:47:05;;;;;;;;;;;5.10;99.90;;;;;;5027190;28;19920;-80
2022/02/15 02:49:31;;;;;;;;;;;5.20;99.90;;;;;;5028958;28;19913;-79
2022/02/15 02:51:57;;;;;;;;;;;5.20;99.90;;;;;;5042902;28;19945;-80
2022/02/15 02:54:24;;;;;;;;;;;5.20;99.90;;;;;;5008265;28;19921;-80
2022/02/15 02:56:57;;;;;;;;;;;5.20;99.90;;;;;;5027556;28;19917;-80
2022/02/15 02:59:22;;;;;;;;;;;5.20;99.90;;;;;;5013988;28;19940;-80
2022/02/15 03:01:48;;;;;;;;;;;5.20;99.90;;;;;;5002302;28;20364;-80
2022/02/15 03:04:14;;;;;;;;;;;5.20;99.90;;;;;;5027384;28;20600;-80
2022/02/15 03:06:40;;;;;;;;;;;5.30;99.90;;;;;;5040043;28;20395;-80
2022/02/15 03:09:06;;;;;;;;;;;5.30;99.90;;;;;;5014989;28;19964;-81
2022/02/15 03:11:32;;;;;;;;;;;5.20;99.90;;;;;;5051614;28;20020;-82
2022/02/15 03:14:01;;;;;;;;;;;5.20;99.90;;;;;;5033323;28;19917;-80
2022/02/15 03:16:35;;;;;;;;;;;5.30;99.90;;;;;;5039587;28;19924;-80
2022/02/15 03:19:01;;;;;;;;;;;5.30;99.90;;;;;;5008672;28;20087;-80
2022/02/15 03:21:27;;;;;;;;;;;5.30;99.90;;;;;;5030394;28;19947;-79
2022/02/15 03:23:53;;;;;;;;;;;5.30;99.90;;;;;;5029987;28;20352;-80
2022/02/15 03:26:18;;;;;;;;;;;5.30;99.90;;;;;;5029994;28;19913;-79
2022/02/15 03:28:44;;;;;;;;;;;5.30;99.90;;;;;;5010109;28;20048;-79
2022/02/15 03:31:12;;;;;;;;;;;5.20;99.90;;;;;;5028483;28;20005;-79
2022/02/15 03:33:38;;;;;;;;;;;5.10;99.90;;;;;;5013631;28;19983;-80
2022/02/15 03:36:04;;;;;;;;;;;5.10;99.90;;;;;;4997223;28;19923;-80
2022/02/15 03:38:32;;;;;;;;;;;5.20;99.90;;;;;;5013331;28;20290;-80
2022/02/15 03:44:11;;;;;;;;;;;5.20;99.90;;;;;;5030050;28;20087;-80
2022/02/15 03:46:38;;;;;;;;;;;5.10;99.90;;;;;;5013333;28;19918;-80
2022/02/15 03:49:03;;;;;;;;;;;5.10;99.90;;;;;;5029496;28;20402;-79
2022/02/15 03:51:30;;;;;;;;;;;5.20;99.90;;;;;;5021424;28;20117;-80
2022/02/15 03:53:56;;;;;;;;;;;5.10;99.90;;;;;;5010112;28;20282;-79
2022/02/15 03:56:22;;;;;;;;;;;5.20;99.90;;;;;;5016152;28;19924;-79
2022/02/15 03:58:48;;;;;;;;;;;5.20;99.90;;;;;;5027955;28;19922;-80
2022/02/15 04:01:16;;;;;;;;;;;5.20;99.90;;;;;;5029789;28;19980;-80
2022/02/15 04:03:43;;;;;;;;;;;5.20;99.90;;;;;;4996846;28;20371;-80
2022/02/15 04:06:10;;;;;;;;;;;5.10;99.90;;;;;;5012611;28;20379;-80
2022/02/15 04:08:35;;;;;;;;;;;5.10;99.90;;;;;;5013478;28;19967;-79
2022/02/15 04:11:01;;;;;;;;;;;5.10;99.90;;;;;;5029233;28;19979;-80
2022/02/15 04:13:31;;;;;;;;;;;5.10;99.90;;;;;;5028940;28;19917;-80
2022/02/15 04:15:57;;;;;;;;;;;5.00;99.90;;;;;;4978651;28;19918;-79
2022/02/15 04:18:26;;;;;;;;;;;5.00;99.90;;;;;;5039583;28;19954;-80
2022/02/15 04:20:52;;;;;;;;;;;5.00;99.90;;;;;;5013297;28;19922;-79
2022/02/15 04:23:17;;;;;;;;;;;5.00;99.90;;;;;;5019187;28;19917;-80
2022/02/15 04:25:44;;;;;;;;;;;5.00;99.90;;;;;;4994957;28;19953;-79
2022/02/15 04:28:20;;;;;;;;;;;5.00;99.90;;;;;;5023915;28;19921;-80
2022/02/15 04:30:46;;;;;;;;;;;5.00;99.90;;;;;;4996140;28;20269;-80
2022/02/15 04:33:13;;;;;;;;;;;5.00;99.90;;;;;;5019266;28;19924;-80
2022/02/15 04:35:39;;;;;;;;;;;5.00;99.90;;;;;;5042877;28;19921;-80
2022/02/15 04:38:05;;;;;;;;;;;5.00;99.90;;;;;;5053403;28;19925;-80
2022/02/15 04:40:31;;;;;;;;;;;5.00;99.90;;;;;;5008111;28;19925;-79
2022/02/15 04:43:00;;;;;;;;;;;5.00;99.90;;;;;;5017878;28;19966;-79
2022/02/15 04:45:25;;;;;;;;;;;5.00;99.90;;;;;;5019689;28;19917;-79
2022/02/15 04:47:53;;;;;;;;;;;5.00;99.90;;;;;;5028938;28;19968;-79
2022/02/15 04:50:20;;;;;;;;;;;5.00;99.90;;;;;;5040915;28;19921;-80
2022/02/15 04:52:48;;;;;;;;;;;5.00;99.90;;;;;;5033666;28;20359;-80
2022/02/15 04:55:18;;;;;;;;;;;5.00;99.90;;;;;;5012001;28;20395;-80
2022/02/15 04:57:51;;;;;;;;;;;5.10;99.90;;;;;;5009216;28;19921;-79
2022/02/15 05:00:16;;;;;;;;;;;5.20;99.90;;;;;;5044949;28;20402;-80
2022/02/15 05:03:05;;;;;;;;;;;5.20;99.90;;;;;;5008942;28;19996;-79
2022/02/15 05:05:31;;;;;;;;;;;5.30;99.90;;;;;;5015734;28;20339;-80
2022/02/15 05:07:57;;;;;;;;;;;5.20;99.90;;;;;;5012078;28;19918;-79
2022/02/15 05:10:24;;;;;;;;;;;5.20;99.90;;;;;;5001495;28;20023;-79
2022/02/15 05:12:50;;;;;;;;;;;5.20;99.90;;;;;;5031137;28;20333;-80
2022/02/15 05:15:27;;;;;;;;;;;5.10;99.90;;;;;;5007978;28;20341;-80
2022/02/15 05:18:11;;;;;;;;;;;5.10;99.90;;;;;;5011951;28;19921;-80
2022/02/15 05:20:40;;;;;;;;;;;5.10;99.90;;;;;;5043319;28;19968;-80
2022/02/15 05:23:07;;;;;;;;;;;5.10;99.90;;;;;;4994841;28;19920;-80
2022/02/15 05:25:38;;;;;;;;;;;5.10;99.90;;;;;;5011901;28;19941;-80
2022/02/15 05:28:04;;;;;;;;;;;5.10;99.90;;;;;;5044200;28;20498;-80
2022/02/15 05:30:30;;;;;;;;;;;5.10;99.90;;;;;;5027909;28;19963;-80
2022/02/15 05:33:21;;;;;;;;;;;5.10;99.90;;;;;;5021813;28;20379;-80
2022/02/15 05:35:51;;;;;;;;;;;5.10;99.90;;;;;;5018489;28;19961;-79
2022/02/15 05:38:18;;;;;;;;;;;5.10;99.90;;;;;;5031838;28;19918;-79
2022/02/15 05:40:46;;;;;;;;;;;5.10;99.90;;;;;;4995274;28;19921;-80
2022/02/15 05:43:14;;;;;;;;;;;5.10;99.90;;;;;;4995230;28;19948;-80
2022/02/15 05:45:42;;;;;;;;;;;5.10;99.90;;;;;;4988511;28;20490;-80
2022/02/15 05:48:17;;;;;;;;;;;5.10;99.90;;;;;;5016134;28;20377;-79
2022/02/15 05:50:50;;;;;;;;;;;5.00;99.90;;;;;;5038144;28;19924;-79
2022/02/15 05:53:20;;;;;;;;;;;5.00;99.90;;;;;;5031667;28;20383;-80
2022/02/15 05:55:48;;;;;;;;;;;5.10;99.90;;;;;;5051861;28;19991;-79
2022/02/15 05:58:15;;;;;;;;;;;5.10;99.90;;;;;;5027838;28;19945;-79
2022/02/15 06:00:41;;;;;;;;;;;5.10;99.90;;;;;;4993589;28;20020;-79
2022/02/15 06:04:10;;;;;;;;;;;5.10;99.90;;;;;;5010650;28;20439;-79
2022/02/15 06:05:53;;;;;;;;;;;5.00;99.90;;;;;;5010289;28;19913;-79
2022/02/15 06:08:24;;;;;;;;;;;5.00;99.90;;;;;;5002392;28;19921;-80
2022/02/15 06:10:51;;;;;;;;;;;4.90;99.90;;;;;;5033804;28;19929;-80
2022/02/15 06:13:28;;;;;;;;;;;4.80;99.90;;;;;;5027087;28;19913;-80
2022/02/15 06:15:55;;;;;;;;;;;4.80;99.90;;;;;;5026819;28;19913;-80
2022/02/15 06:18:27;;;;;;;;;;;4.80;99.90;;;;;;5009979;28;20326;-79
2022/02/15 06:20:59;;;;;;;;;;;4.80;99.90;;;;;;5004941;28;20004;-80
2022/02/15 06:23:27;;;;;;;;;;;4.70;99.90;;;;;;5042672;28;19917;-80
2022/02/15 06:26:02;;;;;;;;;;;4.70;99.90;;;;;;5010491;28;19917;-80
2022/02/15 06:28:42;;;;;;;;;;;4.70;99.90;;;;;;5009206;28;19918;-80
2022/02/15 06:31:14;;;;;;;;;;;4.60;99.90;;;;;;5010414;28;19924;-80
2022/02/15 06:33:40;;;;;;;;;;;4.60;99.90;;;;;;5009993;28;19922;-80
2022/02/15 06:36:06;;;;;;;;;;;4.60;99.90;;;;;;5033200;28;20283;-81
2022/02/15 06:38:36;;;;;;;;;;;4.60;99.90;;;;;;5016433;28;19914;-80
2022/02/15 06:41:11;;;;;;;;;;;4.60;99.90;;;;;;5025468;28;20339;-80
2022/02/15 06:44:06;;;;;;;;;;;4.60;99.90;;;;;;5022730;28;19918;-80
2022/02/15 06:46:36;;;;;;;;;;;4.60;99.90;;;;;;4997937;28;19941;-79
2022/02/15 06:49:11;;;;;;;;;;;4.60;99.90;;;;;;5023422;28;20004;-80
2022/02/15 06:51:38;;;;;;;;;;;4.60;99.90;;;;;;5027415;28;20000;-82
2022/02/15 06:54:09;;;;;;;;;;;4.60;99.90;;;;;;5005422;28;19960;-82
2022/02/15 06:56:46;;;;;;;;;;;4.60;99.90;;;;;;5011067;28;20407;-82
2022/02/15 06:59:20;;;;;;;;;;;4.70;99.90;;;;;;5048818;28;20311;-82
2022/02/15 07:01:46;;;;;;;;;;;4.70;99.90;;;;;;5022926;28;19924;-82
2022/02/15 07:04:15;;;;;;;;;;;4.70;99.90;;;;;;5020821;28;19917;-82
2022/02/15 07:06:42;;;;;;;;;;;4.70;99.90;;;;;;5020253;28;20334;-82
2022/02/15 07:09:08;;;;;;;;;;;4.70;99.90;;;;;;5002487;28;19917;-82
2022/02/15 07:11:51;;;;;;;;;;;4.70;99.90;;;;;;5003141;28;19996;-81
2022/02/15 07:14:17;;;;;;;;;;;4.80;99.90;;;;;;5012078;28;19929;-82
2022/02/15 07:16:46;;;;;;;;;;;4.80;99.90;;;;;;5021362;28;20391;-82
2022/02/15 07:19:14;;;;;;;;;;;4.80;99.90;;;;;;5025303;28;19944;-82
2022/02/15 07:21:58;;;;;;;;;;;4.80;99.90;;;;;;5008429;28;19976;-82
2022/02/15 07:24:59;;;;;;;;;;;4.80;99.90;;;;;;5002682;28;19917;-82
2022/02/15 07:27:30;;;;;;;;;;;4.80;99.90;;;;;;5008247;28;19971;-82
2022/02/15 07:29:58;;;;;;;;;;;4.90;99.90;;;;;;5009292;28;20291;-82
2022/02/15 07:32:32;;;;;;;;;;;4.90;99.90;;;;;;5009898;28;19953;-82
2022/02/15 07:35:01;;;;;;;;;;;4.90;99.90;;;;;;5032888;28;19949;-82
2022/02/15 07:37:28;;;;;;;;;;;4.90;99.90;;;;;;5046768;28;19918;-82
2022/02/15 07:39:54;;;;;;;;;;;5.00;99.90;;;;;;4992785;28;19917;-82
2022/02/15 07:42:20;;;;;;;;;;;5.00;99.90;;;;;;5008915;28;19914;-81
2022/02/15 07:44:47;;;;;;;;;;;5.00;99.90;;;;;;4996903;28;19979;-82
2022/02/15 07:47:13;;;;;;;;;;;5.10;99.90;;;;;;5015570;28;20323;-81
2022/02/15 07:49:40;;;;;;;;;;;5.20;99.90;;;;;;5042926;28;20366;-82
2022/02/15 07:52:05;;;;;;;;;;;5.20;99.90;;;;;;5014899;28;19952;-82
2022/02/15 07:54:31;;;;;;;;;;;5.20;99.90;;;;;;5020784;28;19963;-83
2022/02/15 07:56:57;;;;;;;;;;;5.30;99.90;;;;;;5011761;28;19914;-82
2022/02/15 07:59:22;;;;;;;;;;;5.30;99.90;;;;;;5016753;28;19930;-83
2022/02/15 08:01:48;;;;;;;;;;;5.30;99.90;;;;;;5014648;28;19925;-82
2022/02/15 08:04:14;;;;;;;;;;;5.40;99.90;;;;;;5029868;28;19918;-82
2022/02/15 08:06:43;;;;;;;;;;;5.50;99.90;;;;;;5027434;28;20256;-82
2022/02/15 08:09:14;;;;;;;;;;;5.50;99.90;;;;;;5014470;28;19922;-82
2022/02/15 08:11:44;;;;;;;;;;;5.50;99.90;;;;;;5021075;28;19921;-81
2022/02/15 08:14:09;;;;;;;;;;;5.50;99.90;;;;;;5024979;28;19909;-82
2022/02/15 08:16:35;;;;;;;;;;;5.50;99.90;;;;;;5054900;28;20012;-81
2022/02/15 08:19:02;;;;;;;;;;;5.60;99.90;;;;;;5023325;28;19922;-79
2022/02/15 08:21:28;;;;;;;;;;;5.60;99.90;;;;;;5028224;28;20331;-79
2022/02/15 08:23:56;;;;;;;;;;;5.70;99.90;;;;;;5049193;28;19913;-80
2022/02/15 08:26:24;;;;;;;;;;;5.70;99.90;;;;;;5013671;28;19921;-80
2022/02/15 08:28:50;;;;;;;;;;;5.70;99.90;;;;;;5016035;28;19976;-81
2022/02/15 08:31:15;;;;;;;;;;;5.80;99.90;;;;;;5002429;28;19918;-80
2022/02/15 08:33:41;;;;;;;;;;;5.80;99.90;;;;;;4994352;28;19913;-82
2022/02/15 08:36:07;;;;;;;;;;;5.80;99.90;;;;;;5038730;28;20326;-82
2022/02/15 08:38:33;;;;;;;;;;;5.90;99.90;;;;;;5030600;28;19913;-80
2022/02/15 08:40:59;;;;;;;;;;;5.90;99.90;;;;;;5018859;28;20007;-80
2022/02/15 08:43:25;;;;;;;;;;;5.90;99.90;;;;;;5028809;28;19917;-81
2022/02/15 08:45:51;;;;;;;;;;;6.00;99.90;;;;;;5037101;28;19922;-81
2022/02/15 08:48:16;;;;;;;;;;;6.00;99.90;;;;;;5015794;28;19926;-81
2022/02/15 08:50:42;;;;;;;;;;;6.10;99.90;;;;;;5017060;28;19968;-81
2022/02/15 08:53:08;;;;;;;;;;;6.10;99.90;;;;;;5025230;28;19918;-81
2022/02/15 08:55:34;;;;;;;;;;;6.00;99.90;;;;;;5005291;28;19964;-81
2022/02/15 08:58:00;;;;;;;;;;;6.10;99.90;;;;;;5013191;28;19926;-81
2022/02/15 09:00:25;;;;;;;;;;;6.10;99.90;;;;;;5017876;28;19925;-81
2022/02/15 09:02:52;;;;;;;;;;;6.10;99.90;;;;;;5034266;28;19942;-81
2022/02/15 09:05:17;;;;;;;;;;;6.20;99.90;;;;;;5015707;28;20433;-81
2022/02/15 09:07:43;;;;;;;;;;;6.20;99.90;;;;;;5028471;28;19917;-81
2022/02/15 09:10:09;;;;;;;;;;;6.10;99.90;;;;;;5011702;28;20273;-81
2022/02/15 09:12:35;;;;;;;;;;;6.10;99.90;;;;;;5034525;28;19914;-81
2022/02/15 09:15:01;;;;;;;;;;;6.10;99.90;;;;;;5011708;28;20388;-81
2022/02/15 09:17:26;;;;;;;;;;;6.10;99.90;;;;;;5012686;28;20055;-81
2022/02/15 09:19:52;;;;;;;;;;;6.20;99.90;;;;;;5013263;28;19921;-82
2022/02/15 09:22:18;;;;;;;;;;;6.20;99.90;;;;;;5032935;28;19917;-81
2022/02/15 09:24:44;;;;;;;;;;;6.30;99.90;;;;;;5022039;28;19917;-81
2022/02/15 09:27:10;;;;;;;;;;;6.30;99.90;;;;;;5019279;28;20396;-82
2022/02/15 09:29:35;;;;;;;;;;;6.30;99.90;;;;;;5033336;28;19922;-81
2022/02/15 09:32:01;;;;;;;;;;;6.40;99.90;;;;;;5030599;28;19918;-82
2022/02/15 09:34:27;;;;;;;;;;;6.50;99.90;;;;;;5039066;28;20379;-82
2022/02/15 09:36:53;;;;;;;;;;;6.60;99.90;;;;;;5030180;28;19963;-82
2022/02/15 09:39:19;;;;;;;;;;;6.60;99.90;;;;;;5032012;28;20375;-82
2022/02/15 09:41:45;;;;;;;;;;;6.60;99.90;;;;;;5031422;28;19979;-81
2022/02/15 09:44:10;;;;;;;;;;;6.70;99.90;;;;;;4993276;28;20339;-81
2022/02/15 09:46:36;;;;;;;;;;;6.70;99.90;;;;;;5019322;28;19917;-81
2022/02/15 09:49:02;;;;;;;;;;;6.80;99.90;;;;;;5011880;28;20017;-81
2022/02/15 09:51:29;;;;;;;;;;;6.80;99.90;;;;;;5020328;28;19917;-81
2022/02/15 09:53:55;;;;;;;;;;;6.80;99.90;;;;;;5016204;28;19918;-82
2022/02/15 09:56:20;;;;;;;;;;;6.80;99.90;;;;;;5013234;28;20319;-81
2022/02/15 09:58:46;;;;;;;;;;;6.90;99.90;;;;;;5019279;28;19925;-82
2022/02/15 10:01:12;;;;;;;;;;;7.00;99.90;;;;;;4996854;28;19917;-82
2022/02/15 10:03:57;;;;;;;;;;;7.10;99.90;;;;;;5034555;28;19914;-82
2022/02/15 10:06:26;;;;;;;;;;;7.10;99.90;;;;;;5021085;28;19914;-82
2022/02/15 10:08:55;;;;;;;;;;;7.10;99.90;;;;;;5016524;28;19917;-81
2022/02/15 10:11:21;;;;;;;;;;;7.20;99.90;;;;;;5024834;28;20004;-82
2022/02/15 10:13:47;;;;;;;;;;;7.20;99.90;;;;;;5009124;28;20029;-82
2022/02/15 10:16:14;;;;;;;;;;;7.20;99.90;;;;;;5013809;28;20399;-83
2022/02/15 10:18:41;;;;;;;;;;;7.30;99.90;;;;;;5007950;28;19914;-80
2022/02/15 10:21:09;;;;;;;;;;;7.30;99.90;;;;;;5012857;28;20537;-81
2022/02/15 10:23:35;;;;;;;;;;;7.30;99.90;;;;;;5028064;28;19978;-81
2022/02/15 10:26:01;;;;;;;;;;;7.30;99.90;;;;;;5021298;28;20427;-80
2022/02/15 10:28:27;;;;;;;;;;;7.20;99.90;;;;;;5020537;28;20076;-81
2022/02/15 10:30:57;;;;;;;;;;;7.20;99.90;;;;;;5048737;28;20004;-80
2022/02/15 10:33:30;;;;;;;;;;;7.10;99.90;;;;;;5029409;28;19920;-80
2022/02/15 10:36:00;;;;;;;;;;;7.20;99.90;;;;;;5005714;28;20295;-80
2022/02/15 10:38:27;;;;;;;;;;;7.30;99.90;;;;;;5007806;28;19917;-81
2022/02/15 10:40:56;;;;;;;;;;;7.30;99.90;;;;;;5019320;28;19929;-80
2022/02/15 10:43:22;;;;;;;;;;;7.30;99.90;;;;;;5007983;28;19937;-80
2022/02/15 10:45:48;;;;;;;;;;;7.30;99.90;;;;;;5005692;28;20483;-80
2022/02/15 10:48:13;;;;;;;;;;;7.30;99.90;;;;;;4999868;28;19918;-81
2022/02/15 10:50:39;;;;;;;;;;;7.30;99.90;;;;;;4997744;28;19925;-81
2022/02/15 10:53:06;;;;;;;;;;;7.40;99.90;;;;;;5012738;28;20700;-82
2022/02/15 10:55:32;;;;;;;;;;;7.40;99.90;;;;;;5037951;28;20497;-82
2022/02/15 10:57:58;;;;;;;;;;;7.50;99.90;;;;;;5006184;28;19917;-82
2022/02/15 11:00:24;;;;;;;;;;;7.50;99.90;;;;;;4989599;28;19925;-82
2022/02/15 11:02:51;;;;;;;;;;;7.60;99.90;;;;;;5037239;28;19921;-83
2022/02/15 11:05:17;;;;;;;;;;;7.60;99.90;;;;;;5011587;28;19972;-82
2022/02/15 11:07:43;;;;;;;;;;;7.50;99.90;;;;;;5006170;28;19922;-81
2022/02/15 11:10:09;;;;;;;;;;;7.60;99.90;;;;;;5021463;28;19921;-81
2022/02/15 11:12:53;;;;;;;;;;;7.60;99.90;;;;;;5029412;28;20364;-81
2022/02/15 11:15:21;;;;;;;;;;;7.60;99.90;;;;;;4995164;28;20435;-81
2022/02/15 11:17:47;;;;;;;;;;;7.60;99.90;;;;;;5018454;28;19968;-81
2022/02/15 11:20:15;;;;;;;;;;;7.70;99.90;;;;;;5020570;28;20415;-82
2022/02/15 11:22:41;;;;;;;;;;;7.70;99.90;;;;;;5016489;28;20001;-82
2022/02/15 11:25:07;;;;;;;;;;;7.70;99.90;;;;;;5010242;28;20369;-82
2022/02/15 11:27:33;;;;;;;;;;;7.70;99.90;;;;;;4997601;28;20009;-82
2022/02/15 11:29:58;;;;;;;;;;;7.70;99.90;;;;;;5012176;28;19949;-83
2022/02/15 11:32:25;;;;;;;;;;;7.80;99.90;;;;;;5009674;28;19983;-81
2022/02/15 11:34:51;;;;;;;;;;;7.70;99.90;;;;;;5008317;28;19922;-82
2022/02/15 11:37:19;;;;;;;;;;;7.70;99.90;;;;;;5008126;28;19920;-81
2022/02/15 11:39:55;;;;;;;;;;;7.80;99.90;;;;;;5005799;28;19917;-82
2022/02/15 11:42:22;;;;;;;;;;;7.80;99.90;;;;;;5024197;28;19914;-81
2022/02/15 11:44:47;;;;;;;;;;;7.80;99.90;;;;;;5008982;28;19913;-82
2022/02/15 11:47:39;;;;;;;;;;;7.90;99.90;;;;;;5026548;28;19913;-82
2022/02/15 11:50:10;;;;;;;;;;;7.90;99.90;;;;;;5005641;28;20097;-82
2022/02/15 11:52:37;;;;;;;;;;;7.90;99.90;;;;;;5042740;28;19945;-82
2022/02/15 11:55:09;;;;;;;;;;;7.80;99.90;;;;;;5025952;28;20379;-81
2022/02/15 11:57:36;;;;;;;;;;;7.80;99.90;;;;;;5009503;28;19944;-82
2022/02/15 12:00:02;;;;;;;;;;;7.70;99.90;;;;;;5010310;28;19975;-82
2022/02/15 12:02:38;;;;;;;;;;;7.70;99.90;;;;;;5040079;28;19924;-82
2022/02/15 12:05:05;;;;;;;;;;;7.70;99.90;;;;;;5029134;28;20539;-82
2022/02/15 12:07:32;;;;;;;;;;;7.70;99.90;;;;;;5022939;28;19913;-82
2022/02/15 12:09:59;;;;;;;;;;;7.70;99.90;;;;;;5006169;28;20012;-83
2022/02/15 12:12:32;;;;;;;;;;;7.60;99.90;;;;;;5026067;28;19917;-82
2022/02/15 12:14:58;;;;;;;;;;;7.50;99.90;;;;;;5017071;28;20359;-82
2022/02/15 12:17:26;;;;;;;;;;;7.50;99.90;;;;;;5018785;28;20202;-82
2022/02/15 12:19:58;;;;;;;;;;;7.50;99.90;;;;;;5041633;28;20355;-82
2022/02/15 12:22:25;;;;;;;;;;;7.50;99.90;;;;;;5006972;28;20011;-82
2022/02/15 12:25:09;;;;;;;;;;;7.50;99.90;;;;;;5012871;28;19910;-82
2022/02/15 12:27:39;;;;;;;;;;;7.60;99.90;;;;;;5025325;28;19925;-82
2022/02/15 12:30:05;;;;;;;;;;;7.60;99.90;;;;;;5007796;28;20360;-82
2022/02/15 12:32:32;;;;;;;;;;;7.70;99.90;;;;;;5033400;28;19917;-82
2022/02/15 12:34:58;;;;;;;;;;;7.80;99.90;;;;;;5008568;28;19913;-82
2022/02/15 12:37:25;;;;;;;;;;;7.80;99.90;;;;;;5010787;28;20004;-82
2022/02/15 12:39:54;;;;;;;;;;;7.80;99.90;;;;;;5027039;28;19926;-82
2022/02/15 12:42:20;;;;;;;;;;;7.80;99.90;;;;;;5027047;28;19955;-82
2022/02/15 12:44:58;;;;;;;;;;;7.80;99.90;;;;;;5011986;28;19957;-81
2022/02/15 12:47:24;;;;;;;;;;;7.90;99.90;;;;;;5037039;28;19914;-82
2022/02/15 12:49:52;;;;;;;;;;;7.80;99.90;;;;;;5028231;28;19921;-81
2022/02/15 12:52:18;;;;;;;;;;;7.80;99.90;;;;;;5025866;28;19914;-81
2022/02/15 12:54:54;;;;;;;;;;;7.80;99.90;;;;;;4993785;28;19965;-82
2022/02/15 12:57:20;;;;;;;;;;;7.70;99.90;;;;;;5008376;28;19914;-82
2022/02/15 12:59:47;;;;;;;;;;;7.70;99.90;;;;;;5008633;28;19925;-82
2022/02/15 13:02:14;;;;;;;;;;;7.60;99.90;;;;;;5008780;28;19913;-82
2022/02/15 13:04:44;;;;;;;;;;;7.50;99.90;;;;;;5019890;28;19922;-82
2022/02/15 13:07:10;;;;;;;;;;;7.50;99.90;;;;;;5009089;28;19913;-82
2022/02/15 13:09:36;;;;;;;;;;;7.40;99.90;;;;;;5028909;28;20294;-81
2022/02/15 13:12:03;;;;;;;;;;;7.40;99.90;;;;;;5029748;28;20016;-83
2022/02/15 13:14:29;;;;;;;;;;;7.30;99.90;;;;;;5013883;28;19917;-81
2022/02/15 13:16:56;;;;;;;;;;;7.30;99.90;;;;;;5030133;28;19924;-82
2022/02/15 13:19:31;;;;;;;;;;;7.30;99.90;;;;;;5025750;28;19921;-83
2022/02/15 13:21:57;;;;;;;;;;;7.30;99.90;;;;;;5028345;28;20387;-82
2022/02/15 13:24:23;;;;;;;;;;;7.40;99.90;;;;;;5010458;28;19918;-82
2022/02/15 13:26:49;;;;;;;;;;;7.50;99.90;;;;;;5017461;28;19918;-82
2022/02/15 13:29:23;;;;;;;;;;;7.60;99.90;;;;;;5024079;28;20382;-81
2022/02/15 13:31:53;;;;;;;;;;;7.60;99.90;;;;;;5022935;28;19945;-83
2022/02/15 13:34:25;;;;;;;;;;;7.60;99.90;;;;;;4999006;28;19913;-82
2022/02/15 13:36:55;;;;;;;;;;;7.70;99.90;;;;;;5018436;28;20128;-84
2022/02/15 13:39:21;;;;;;;;;;;7.70;99.90;;;;;;5011838;28;19961;-82
2022/02/15 13:41:48;;;;;;;;;;;7.70;99.90;;;;;;5012263;28;19958;-83
2022/02/15 13:44:14;;;;;;;;;;;7.70;99.90;;;;;;5010924;28;19918;-83
2022/02/15 13:46:40;;;;;;;;;;;7.70;99.90;;;;;;4995522;28;19914;-82
2022/02/15 13:49:06;;;;;;;;;;;7.60;99.90;;;;;;5011556;28;19918;-82
2022/02/15 13:51:31;;;;;;;;;;;7.60;99.90;;;;;;5012010;28;19917;-82
2022/02/15 13:54:05;;;;;;;;;;;7.60;99.90;;;;;;5049762;28;19920;-83
2022/02/15 13:56:31;;;;;;;;;;;7.60;99.90;;;;;;5023467;28;19921;-84
2022/02/15 13:58:57;;;;;;;;;;;7.60;99.90;;;;;;4994197;28;19918;-82
2022/02/15 14:01:24;;;;;;;;;;;7.50;99.90;;;;;;5010893;28;19917;-83
2022/02/15 14:03:53;;;;;;;;;;;7.60;99.90;;;;;;5011174;28;19917;-83
2022/02/15 14:06:22;;;;;;;;;;;7.50;99.90;;;;;;5009595;28;19913;-83
2022/02/15 14:08:48;;;;;;;;;;;7.40;99.90;;;;;;5009708;28;19944;-82
2022/02/15 14:11:14;;;;;;;;;;;7.30;99.90;;;;;;5043743;28;20395;-82
2022/02/15 14:13:40;;;;;;;;;;;7.10;99.90;;;;;;5012325;28;20100;-82
2022/02/15 14:16:06;;;;;;;;;;;7.10;99.90;;;;;;5043286;28;19917;-82
2022/02/15 14:18:31;;;;;;;;;;;7.00;99.90;;;;;;5011879;28;19924;-81
2022/02/15 14:20:57;;;;;;;;;;;6.80;99.90;;;;;;5025452;28;19921;-83
2022/02/15 14:23:23;;;;;;;;;;;6.80;99.90;;;;;;5036785;28;20004;-81
2022/02/15 14:25:49;;;;;;;;;;;6.90;99.90;;;;;;5011479;28;20011;-82
2022/02/15 14:28:14;;;;;;;;;;;6.90;99.90;;;;;;4988141;28;19917;-82
2022/02/15 14:30:43;;;;;;;;;;;6.90;99.90;;;;;;5006054;28;19921;-82
2022/02/15 14:33:08;;;;;;;;;;;6.90;99.90;;;;;;5019916;28;19913;-82
2022/02/15 14:35:35;;;;;;;;;;;6.90;99.90;;;;;;5016124;28;19924;-84
2022/02/15 14:38:02;;;;;;;;;;;6.80;99.90;;;;;;5019561;28;19925;-83
2022/02/15 14:40:27;;;;;;;;;;;6.80;99.90;;;;;;5037887;28;19921;-81